Etusivu
METAR-TAF:

METAR-TAF

Lentoasemat :

Berlevåg, Norja

Leveyspiiri: 70-52N, Pituuspiiri: 029-02E, korkeus merenpinnasta: 1 m

Tämänhetkinen sää

Tämä raportti tehtiin 1 tunti ja 59 minuuttia sitten, kello 20.50 UTC
Tuuli 8 kn lounaasta
Lämpötila -3°C
Kosteus 93%
Ilmanpaine 999 hPa
Näkyvyys: 2000 m
lumikuuroja

METAR: ENBV 172050Z 23008KT 2000 SHSN VV006 M03/M04 Q0999

Aika: 23:49 (22:49 UTC)

Sääennuste

Tämä raportti tehtiin 14 tuntia ja 49 minuuttia sitten, kello 08.00 UTC
Ennuste voimassa 17. päivästä klo 09 UTC - 17. päivään klo 12 UTC
Tuuli 8 kn etelästä/lounaasta
Näkyvyys 10 km tai enemmän
Muutamia pilviä 1500 ft:n korkeudessa, Kasvava cumulus-pilvi.
Hajanaisia pilviä 3000 ft:n korkeudessa
Todennäköisyys 40% :
Ajoittain
17. päivästä klo 09 UTC - 17. päivään klo 12 UTC
Näkyvyys: 4000 m
1200 ft:n korkeudessa
heikkoja lumikuuroja

TAF: ENBV 170800Z 1709/1712 21008KT 9999 FEW015TCU SCT030 PROB40 TEMPO 1709/1712 4000 -SHSN VV012

Säähavainnot ja -ennusteet yli 4000 lentoasemalta (METAR- ja TAF-raportit).

Käytössä olevat sääasemat on merkitty karttaan keltaisilla ja punaisilla pisteillä.

Aseta hiiri pisteen päälle nähdäksesi sääaseman nimen.

Klikkaa sitten nähdäksesi säähavainnot ja -ennusteet.

Kartan vaihtaminen: klikkaa mustalla rastilla varustettuja vihreitä pisteitä, niin voit zoomata sisään; viivalla varustettua vihreää pistettä, niin voit zoomata ulos tai vihreitä nuolia, niin pääset viereisille kartoille.


METAR-TAF: